createdAt,value
2018-09-04T00:00:52.191Z,0.00
2018-09-04T00:01:52.165Z,0.00
2018-09-04T00:02:52.118Z,0.00
2018-09-04T00:03:52.079Z,0.00
2018-09-04T00:04:52.046Z,0.00
2018-09-04T00:05:52.017Z,0.00
2018-09-04T00:06:51.983Z,0.00
2018-09-04T00:07:51.949Z,0.00
2018-09-04T00:08:51.917Z,0.00
2018-09-04T00:09:51.893Z,0.00
2018-09-04T00:10:51.851Z,0.00
2018-09-04T00:11:51.815Z,0.00
2018-09-04T00:12:51.776Z,0.00
2018-09-04T00:13:51.742Z,0.00
2018-09-04T00:14:51.712Z,0.00
2018-09-04T00:15:51.682Z,0.00
2018-09-04T00:16:51.650Z,0.00
2018-09-04T00:17:51.611Z,0.00
2018-09-04T00:18:51.581Z,0.00
2018-09-04T00:19:51.549Z,0.00
2018-09-04T00:20:51.514Z,0.00
2018-09-04T00:21:51.483Z,0.00
2018-09-04T00:22:51.448Z,0.00
2018-09-04T00:23:51.411Z,0.00
2018-09-04T00:24:51.377Z,0.00
2018-09-04T00:25:51.344Z,0.00
2018-09-04T00:26:51.316Z,0.00
2018-09-04T00:27:51.280Z,0.00
2018-09-04T00:28:51.248Z,0.00
2018-09-04T00:29:51.213Z,0.00
2018-09-04T00:30:51.179Z,0.00
2018-09-04T00:31:51.144Z,0.00
2018-09-04T00:32:51.114Z,0.00
2018-09-04T00:33:51.079Z,0.00
2018-09-04T00:34:51.048Z,0.00
2018-09-04T00:35:51.023Z,0.00
2018-09-04T00:36:50.974Z,0.00
2018-09-04T00:37:50.940Z,0.00
2018-09-04T00:38:50.910Z,0.00
2018-09-04T00:39:50.877Z,0.00
2018-09-04T00:40:50.851Z,0.00
2018-09-04T00:41:50.811Z,0.00
2018-09-04T00:42:50.778Z,0.00
2018-09-04T00:43:50.745Z,0.00
2018-09-04T00:44:50.706Z,0.00
2018-09-04T00:45:50.674Z,0.00
2018-09-04T00:46:50.640Z,0.00
2018-09-04T00:47:50.611Z,0.00
2018-09-04T00:48:50.579Z,0.00
2018-09-04T00:49:50.541Z,0.00
2018-09-04T00:50:50.507Z,0.00
2018-09-04T00:51:50.485Z,0.00
2018-09-04T00:52:50.459Z,0.00
2018-09-04T00:53:50.412Z,0.00
2018-09-04T00:54:50.375Z,0.00
2018-09-04T00:55:50.342Z,0.00
2018-09-04T00:56:50.309Z,0.00
2018-09-04T00:57:50.278Z,0.00
2018-09-04T00:58:50.279Z,0.00
2018-09-04T00:59:50.214Z,0.00
2018-09-04T01:00:50.181Z,0.00
2018-09-04T01:01:50.143Z,0.00
2018-09-04T01:02:50.107Z,0.00
2018-09-04T01:03:50.075Z,0.00
2018-09-04T01:04:50.037Z,0.00
2018-09-04T01:05:50.010Z,0.00
2018-09-04T01:06:49.976Z,0.00
2018-09-04T01:07:49.945Z,0.00
2018-09-04T01:08:49.915Z,0.00
2018-09-04T01:09:49.891Z,0.00
2018-09-04T01:10:49.837Z,0.00
2018-09-04T01:11:49.806Z,0.00
2018-09-04T01:12:49.775Z,0.00
2018-09-04T01:13:49.744Z,0.00
2018-09-04T01:14:49.707Z,0.00
2018-09-04T01:15:49.671Z,0.00
2018-09-04T01:16:49.637Z,0.00
2018-09-04T01:17:49.604Z,0.00
2018-09-04T01:18:49.577Z,0.00
2018-09-04T01:19:49.544Z,0.00
2018-09-04T01:20:49.515Z,0.00
2018-09-04T01:21:49.468Z,0.00
2018-09-04T01:22:49.438Z,0.00
2018-09-04T01:23:49.408Z,0.00
2018-09-04T01:24:49.378Z,0.00
2018-09-04T01:25:49.342Z,0.00
2018-09-04T01:26:49.321Z,0.00
2018-09-04T01:27:49.270Z,0.00
2018-09-04T01:28:49.239Z,0.00
2018-09-04T01:29:49.202Z,0.00
2018-09-04T01:30:49.170Z,0.00
2018-09-04T01:31:49.142Z,0.00
2018-09-04T01:32:49.112Z,0.00
2018-09-04T01:33:49.076Z,0.00
2018-09-04T01:34:49.038Z,0.00
2018-09-04T01:35:49.008Z,0.00
2018-09-04T01:36:48.981Z,0.00
2018-09-04T01:37:48.946Z,0.00
2018-09-04T01:38:48.909Z,0.00
2018-09-04T01:39:48.870Z,0.00
2018-09-04T01:40:48.835Z,0.00
2018-09-04T01:41:48.805Z,0.00
2018-09-04T01:42:48.772Z,0.00
2018-09-04T01:43:48.740Z,0.00
2018-09-04T01:44:48.712Z,0.00
2018-09-04T01:45:48.674Z,0.00
2018-09-04T01:46:48.641Z,0.00
2018-09-04T01:47:48.603Z,0.00
2018-09-04T01:48:48.568Z,0.00
2018-09-04T01:49:48.535Z,0.00
2018-09-04T01:50:48.501Z,0.00
2018-09-04T01:51:48.471Z,0.00
2018-09-04T01:52:48.440Z,0.00
2018-09-04T01:53:48.402Z,0.00
2018-09-04T01:54:48.373Z,0.00
2018-09-04T01:55:48.337Z,0.00
2018-09-04T01:56:48.309Z,0.00
2018-09-04T01:57:48.276Z,0.00
2018-09-04T01:58:48.237Z,0.00
2018-09-04T01:59:48.206Z,0.00
2018-09-04T02:00:48.170Z,0.00
2018-09-04T02:01:48.138Z,0.00
2018-09-04T02:02:48.103Z,0.00
2018-09-04T02:03:48.070Z,0.00
2018-09-04T02:04:48.042Z,0.00
2018-09-04T02:05:48.010Z,0.00
2018-09-04T02:06:47.970Z,0.00
2018-09-04T02:07:47.936Z,0.00
2018-09-04T02:08:47.905Z,0.00
2018-09-04T02:09:47.872Z,0.00
2018-09-04T02:10:47.837Z,0.00
2018-09-04T02:11:47.804Z,0.00
2018-09-04T02:12:47.772Z,0.00
2018-09-04T02:13:47.737Z,0.00
2018-09-04T02:14:47.702Z,0.00
2018-09-04T02:15:47.670Z,0.00
2018-09-04T02:16:47.642Z,0.00
2018-09-04T02:17:47.604Z,0.00
2018-09-04T02:18:47.569Z,0.00
2018-09-04T02:19:47.540Z,0.00
2018-09-04T02:20:47.499Z,0.00
2018-09-04T02:21:47.467Z,0.00
2018-09-04T02:22:47.435Z,0.00
2018-09-04T02:23:47.409Z,0.00
2018-09-04T02:24:47.371Z,0.00
2018-09-04T02:25:47.334Z,0.00
2018-09-04T02:26:47.303Z,0.00
2018-09-04T02:27:47.270Z,0.00
2018-09-04T02:28:47.250Z,0.00
2018-09-04T02:29:47.206Z,0.00
2018-09-04T02:30:47.171Z,0.00
2018-09-04T02:31:47.135Z,0.00
2018-09-04T02:32:47.101Z,0.00
2018-09-04T02:33:47.067Z,0.00
2018-09-04T02:34:47.035Z,0.00
2018-09-04T02:35:47.028Z,0.00
2018-09-04T02:36:46.973Z,0.00
2018-09-04T02:37:46.939Z,0.00
2018-09-04T02:38:46.909Z,0.00
2018-09-04T02:39:46.869Z,0.00
2018-09-04T02:40:46.833Z,0.00
2018-09-04T02:41:46.809Z,0.00
2018-09-04T02:42:46.771Z,0.00
2018-09-04T02:43:46.735Z,0.00
2018-09-04T02:44:46.703Z,0.00
2018-09-04T02:45:46.667Z,0.00
2018-09-04T02:46:46.640Z,0.00
2018-09-04T02:47:46.605Z,0.00
2018-09-04T02:48:46.574Z,0.00
2018-09-04T02:49:46.541Z,0.00
2018-09-04T02:50:46.507Z,0.00
2018-09-04T02:51:46.472Z,0.00
2018-09-04T02:52:46.438Z,0.00
2018-09-04T02:53:46.409Z,0.00
2018-09-04T02:54:46.371Z,0.00
2018-09-04T02:55:46.345Z,0.00
2018-09-04T02:56:46.308Z,0.00
2018-09-04T02:57:46.276Z,0.00
2018-09-04T02:58:46.240Z,0.00
2018-09-04T02:59:46.209Z,0.00
2018-09-04T03:00:46.180Z,0.00
2018-09-04T03:01:46.139Z,0.00
2018-09-04T03:02:46.112Z,0.00
2018-09-04T03:03:46.069Z,0.00
2018-09-04T03:04:46.034Z,0.00
2018-09-04T03:05:46.001Z,0.00
2018-09-04T03:06:45.969Z,0.00
2018-09-04T03:07:45.937Z,0.00
2018-09-04T03:08:45.911Z,0.00
2018-09-04T03:09:45.873Z,0.00
2018-09-04T03:10:45.841Z,0.00
2018-09-04T03:11:45.804Z,0.00
2018-09-04T03:12:45.767Z,0.00
2018-09-04T03:13:45.787Z,0.00
2018-09-04T03:14:45.704Z,0.00
2018-09-04T03:15:45.669Z,0.00
2018-09-04T03:16:45.634Z,0.00
2018-09-04T03:17:45.606Z,0.00
2018-09-04T03:18:45.570Z,0.00
2018-09-04T03:19:45.539Z,0.00
2018-09-04T03:20:45.508Z,0.00
2018-09-04T03:21:45.477Z,0.00
2018-09-04T03:22:45.438Z,0.00
2018-09-04T03:23:45.404Z,0.00
2018-09-04T03:24:45.374Z,0.00
2018-09-04T03:25:45.338Z,0.00
2018-09-04T03:26:45.309Z,0.00
2018-09-04T03:27:45.278Z,0.00
2018-09-04T03:28:45.241Z,0.00
2018-09-04T03:29:45.226Z,0.00
2018-09-04T03:30:45.170Z,0.00
2018-09-04T03:31:45.140Z,0.00
2018-09-04T03:32:45.110Z,0.00
2018-09-04T03:33:45.075Z,0.00
2018-09-04T03:34:45.041Z,0.00
2018-09-04T03:35:45.008Z,0.00
2018-09-04T03:36:44.977Z,0.00
2018-09-04T03:37:44.934Z,0.00
2018-09-04T03:38:44.908Z,0.00
2018-09-04T03:39:44.876Z,0.00
2018-09-04T03:40:44.848Z,0.00
2018-09-04T03:41:44.811Z,0.00
2018-09-04T03:42:44.776Z,0.00
2018-09-04T03:43:44.742Z,0.00
2018-09-04T03:44:44.711Z,0.00
2018-09-04T03:45:44.680Z,0.00
2018-09-04T03:46:44.641Z,0.00
2018-09-04T03:47:44.616Z,0.00
2018-09-04T03:48:44.571Z,0.00
2018-09-04T03:49:44.538Z,0.00
2018-09-04T03:50:44.505Z,0.00
2018-09-04T03:51:44.474Z,0.00
2018-09-04T03:52:44.443Z,0.00
2018-09-04T04:06:45.288Z,0.00
2018-09-04T04:07:45.200Z,0.00
2018-09-04T04:08:45.166Z,0.00
2018-09-04T04:09:45.130Z,0.00
2018-09-04T04:10:45.093Z,0.00
2018-09-04T04:11:45.056Z,0.00
2018-09-04T04:12:45.019Z,0.00
2018-09-04T04:13:44.985Z,0.00
2018-09-04T04:14:44.944Z,0.00
2018-09-04T04:15:44.912Z,0.00
2018-09-04T04:16:44.877Z,0.00
2018-09-04T04:17:44.954Z,0.00
2018-09-04T04:18:44.914Z,0.00
2018-09-04T04:19:44.771Z,0.00
2018-09-04T04:20:44.734Z,0.00
2018-09-04T04:21:44.701Z,0.00
2018-09-04T04:22:44.668Z,0.00
2018-09-04T04:23:44.674Z,0.00
2018-09-04T04:24:44.604Z,0.00
2018-09-04T04:25:44.566Z,0.00
2018-09-04T04:26:44.530Z,0.00
2018-09-04T04:27:44.500Z,0.00
2018-09-04T04:28:44.465Z,0.00
2018-09-04T04:29:44.428Z,0.00
2018-09-04T04:30:44.407Z,0.00
2018-09-04T04:31:44.356Z,0.00
2018-09-04T04:32:44.329Z,0.00
2018-09-04T04:33:44.292Z,0.00
2018-09-04T04:34:44.254Z,0.00
2018-09-04T04:35:44.231Z,0.00
2018-09-04T04:36:44.198Z,0.00
2018-09-04T04:37:44.162Z,0.00
2018-09-04T04:38:44.124Z,0.00
2018-09-04T04:39:44.083Z,0.00
2018-09-04T04:40:44.056Z,0.00
2018-09-04T04:41:44.026Z,0.00
2018-09-04T04:42:43.990Z,0.00
2018-09-04T04:43:43.960Z,0.00
2018-09-04T04:44:43.925Z,0.00
2018-09-04T04:45:43.891Z,0.00
2018-09-04T04:46:43.850Z,0.00
2018-09-04T04:47:43.834Z,0.00
2018-09-04T04:48:43.788Z,0.00
2018-09-04T04:49:43.752Z,0.00
2018-09-04T04:50:43.717Z,0.00
2018-09-04T04:51:43.678Z,0.00
2018-09-04T04:52:44.012Z,0.00
2018-09-04T04:53:43.616Z,0.00
2018-09-04T04:54:43.577Z,0.00
2018-09-04T04:55:43.549Z,0.00
2018-09-04T04:56:43.516Z,0.00
2018-09-04T04:57:43.480Z,0.00
2018-09-04T04:58:43.445Z,0.00
2018-09-04T04:59:43.417Z,0.00
2018-09-04T05:00:43.382Z,0.00
2018-09-04T05:01:43.355Z,0.00
2018-09-04T05:02:43.315Z,0.00
2018-09-04T05:03:43.275Z,0.00
2018-09-04T05:04:43.243Z,0.00
2018-09-04T05:05:43.211Z,0.00
2018-09-04T05:06:43.175Z,0.00
2018-09-04T05:07:43.147Z,0.00
2018-09-04T05:08:43.109Z,0.00
2018-09-04T05:09:43.075Z,0.00
2018-09-04T05:10:43.041Z,0.00
2018-09-04T05:11:43.003Z,0.00
2018-09-04T05:12:42.970Z,0.00
2018-09-04T05:13:42.939Z,0.00
2018-09-04T05:14:42.914Z,0.00
2018-09-04T05:15:42.867Z,0.00
2018-09-04T05:16:42.836Z,0.00
2018-09-04T05:17:42.803Z,0.00
2018-09-04T05:18:42.765Z,0.00
2018-09-04T05:19:42.744Z,0.00
2018-09-04T05:20:42.712Z,0.00
2018-09-04T05:21:42.668Z,0.00
2018-09-04T05:22:42.664Z,0.00
2018-09-04T05:23:42.610Z,0.00
2018-09-04T05:24:42.569Z,0.00
2018-09-04T05:25:42.535Z,0.00
2018-09-04T05:26:42.494Z,0.00
2018-09-04T05:27:42.469Z,0.00
2018-09-04T05:28:42.433Z,0.00
2018-09-04T05:29:42.403Z,0.00
2018-09-04T05:30:42.367Z,0.00
2018-09-04T05:31:42.340Z,0.00
2018-09-04T05:32:42.298Z,0.00
2018-09-04T05:33:42.265Z,0.00
2018-09-04T05:34:42.243Z,0.00
2018-09-04T05:35:42.191Z,0.00
2018-09-04T05:36:42.197Z,0.00
2018-09-04T05:37:42.128Z,0.00
2018-09-04T05:38:42.092Z,0.00
2018-09-04T05:39:42.061Z,0.00
2018-09-04T05:40:42.027Z,0.00
2018-09-04T05:41:41.993Z,0.00
2018-09-04T05:42:41.961Z,0.00
2018-09-04T05:43:41.921Z,0.00
2018-09-04T05:44:41.892Z,0.00
2018-09-04T05:45:41.865Z,0.00
2018-09-04T05:46:41.831Z,0.00
2018-09-04T05:47:41.787Z,0.00
2018-09-04T05:48:41.759Z,0.00
2018-09-04T05:49:41.727Z,0.00
2018-09-04T05:50:41.689Z,0.00
2018-09-04T05:51:41.662Z,0.00
2018-09-04T05:52:41.683Z,0.00
2018-09-04T05:53:41.592Z,0.00
2018-09-04T05:54:41.559Z,0.00
2018-09-04T05:55:41.518Z,0.00
2018-09-04T05:56:41.490Z,0.00
2018-09-04T05:57:41.459Z,0.00
2018-09-04T05:58:41.417Z,0.00
2018-09-04T05:59:41.393Z,0.00
2018-09-04T06:00:41.356Z,0.00
2018-09-04T06:01:41.318Z,0.00
2018-09-04T06:02:41.285Z,0.00
2018-09-04T06:03:41.258Z,0.00
2018-09-04T06:04:41.226Z,0.00
2018-09-04T06:05:41.198Z,0.00
2018-09-04T06:06:41.156Z,0.00
2018-09-04T06:07:41.118Z,0.00
2018-09-04T06:08:41.090Z,0.00
2018-09-04T06:09:41.072Z,0.00
2018-09-04T06:10:41.020Z,0.00
2018-09-04T06:11:40.995Z,0.00
2018-09-04T06:12:40.954Z,0.00
2018-09-04T06:13:40.937Z,0.00
2018-09-04T06:14:40.891Z,0.00
2018-09-04T06:15:40.853Z,0.00
2018-09-04T06:16:40.820Z,0.00
2018-09-04T06:17:40.792Z,0.00
2018-09-04T06:18:40.756Z,0.00
2018-09-04T06:19:40.716Z,0.00
2018-09-04T06:20:40.686Z,0.00
2018-09-04T06:21:40.654Z,0.00
2018-09-04T06:22:40.625Z,0.00
2018-09-04T06:23:40.591Z,0.00
2018-09-04T06:24:40.559Z,0.00
2018-09-04T06:25:40.522Z,0.00
2018-09-04T06:26:40.500Z,0.00
2018-09-04T06:27:40.452Z,0.00
2018-09-04T06:28:40.421Z,0.00
2018-09-04T06:29:40.470Z,0.00
2018-09-04T06:30:40.354Z,0.00
2018-09-04T06:31:40.325Z,0.00
2018-09-04T06:32:40.292Z,0.00
2018-09-04T06:33:40.264Z,0.00
2018-09-04T06:34:40.223Z,0.00
2018-09-04T06:35:40.194Z,0.00
2018-09-04T06:36:40.220Z,0.00
2018-09-04T06:37:40.127Z,0.00
2018-09-04T06:38:40.094Z,0.00
2018-09-04T06:39:40.057Z,0.00
2018-09-04T06:40:40.036Z,0.00
2018-09-04T06:41:39.993Z,0.00
2018-09-04T06:42:39.959Z,0.00
2018-09-04T06:43:39.935Z,0.00
2018-09-04T06:44:39.901Z,0.00
2018-09-04T06:45:39.865Z,0.00
2018-09-04T06:46:39.926Z,0.00
2018-09-04T06:47:39.798Z,0.00
2018-09-04T06:48:39.765Z,0.00
2018-09-04T06:49:39.732Z,0.00
2018-09-04T06:50:39.702Z,0.00
2018-09-04T06:51:39.665Z,0.00
2018-09-04T06:52:39.638Z,0.00
2018-09-04T06:53:39.610Z,0.00
2018-09-04T06:54:39.673Z,0.00
2018-09-04T06:55:39.537Z,0.00
2018-09-04T06:56:39.504Z,0.00
2018-09-04T06:57:39.473Z,0.00
2018-09-04T06:58:39.441Z,0.00
2018-09-04T06:59:39.403Z,0.00
2018-09-04T07:00:39.373Z,0.00
2018-09-04T07:01:39.340Z,0.00
2018-09-04T07:02:39.307Z,0.00
2018-09-04T07:03:39.280Z,0.00
2018-09-04T07:04:39.247Z,0.00
2018-09-04T07:05:39.236Z,0.00
2018-09-04T07:06:39.177Z,0.00
2018-09-04T07:07:39.148Z,0.00
2018-09-04T07:08:39.114Z,0.00
2018-09-04T07:09:39.083Z,0.00
2018-09-04T07:10:39.052Z,0.00
2018-09-04T07:11:39.013Z,0.00
2018-09-04T07:12:38.983Z,0.00
2018-09-04T07:13:38.967Z,0.00
2018-09-04T07:14:39.143Z,0.00
2018-09-04T07:15:38.942Z,0.00
2018-09-04T07:16:38.856Z,0.00
2018-09-04T07:17:38.824Z,0.00
2018-09-04T07:18:38.793Z,2.11
2018-09-04T07:19:38.759Z,2.98
2018-09-04T07:20:38.728Z,3.66
2018-09-04T07:21:38.696Z,5.19
2018-09-04T07:22:38.663Z,2.40
2018-09-04T07:23:38.627Z,1.06
2018-09-04T07:24:38.600Z,1.92
2018-09-04T07:25:38.566Z,2.11
2018-09-04T07:26:38.530Z,3.85
2018-09-04T07:27:38.505Z,4.43
2018-09-04T07:28:38.472Z,5.00
2018-09-04T07:29:38.437Z,1.73
2018-09-04T07:30:38.415Z,2.98
2018-09-04T07:31:38.368Z,3.37
2018-09-04T07:32:38.345Z,4.14
2018-09-04T07:33:38.309Z,3.94
2018-09-04T07:34:38.279Z,4.33
2018-09-04T07:35:38.280Z,5.96
2018-09-04T07:36:38.213Z,6.63
2018-09-04T07:37:38.214Z,8.08
2018-09-04T07:38:38.166Z,8.56
2018-09-04T07:39:38.122Z,10.11
2018-09-04T07:40:38.089Z,10.11
2018-09-04T07:41:38.055Z,9.91
2018-09-04T07:42:38.024Z,11.36
2018-09-04T07:43:37.992Z,12.61
2018-09-04T07:44:37.955Z,13.57
2018-09-04T07:45:37.922Z,12.80
2018-09-04T07:46:37.888Z,13.86
2018-09-04T07:47:37.863Z,15.50
2018-09-04T07:48:37.829Z,15.80
2018-09-04T07:49:37.797Z,16.17
2018-09-04T07:50:37.766Z,15.31
2018-09-04T07:51:37.737Z,16.75
2018-09-04T07:52:37.699Z,16.75
2018-09-04T07:53:37.726Z,17.62
2018-09-04T07:54:37.661Z,17.62
2018-09-04T07:55:37.603Z,21.58
2018-09-04T07:56:37.573Z,20.03
2018-09-04T07:57:37.545Z,20.03
2018-09-04T07:58:37.507Z,19.55
2018-09-04T07:59:37.480Z,18.49
2018-09-04T08:00:37.448Z,17.82
2018-09-04T08:01:37.416Z,19.36
2018-09-04T08:02:37.388Z,18.59
2018-09-04T08:03:37.352Z,18.68
2018-09-04T08:04:37.317Z,18.30
2018-09-04T08:05:37.288Z,18.40
2018-09-04T08:06:37.254Z,17.82
2018-09-04T08:07:37.232Z,18.40
2018-09-04T08:08:37.196Z,18.49
2018-09-04T08:09:37.160Z,18.20
2018-09-04T08:10:37.129Z,17.24
2018-09-04T08:11:37.101Z,17.14
2018-09-04T08:12:37.068Z,16.85
2018-09-04T08:13:37.051Z,19.84
2018-09-04T08:14:37.006Z,22.05
2018-09-04T08:15:36.996Z,22.84
2018-09-04T08:16:36.939Z,24.76
2018-09-04T08:17:36.907Z,23.11
2018-09-04T08:18:36.930Z,22.53
2018-09-04T08:19:36.855Z,23.13
2018-09-04T08:20:36.874Z,24.86
2018-09-04T08:21:36.796Z,26.02
2018-09-04T08:22:36.757Z,25.05
2018-09-04T08:23:36.719Z,24.76
2018-09-04T08:24:36.684Z,23.22
2018-09-04T08:25:36.662Z,24.57
2018-09-04T08:26:36.644Z,24.96
2018-09-04T08:27:36.593Z,26.32
2018-09-04T08:28:36.559Z,25.74
2018-09-04T08:29:36.531Z,26.42
2018-09-04T08:30:36.502Z,28.25
2018-09-04T08:31:36.480Z,28.15
2018-09-04T08:32:36.444Z,29.98
2018-09-04T08:33:36.410Z,29.89
2018-09-04T08:34:36.376Z,29.89
2018-09-04T08:35:36.342Z,30.08
2018-09-04T08:36:36.307Z,29.79
2018-09-04T08:37:36.277Z,30.66
2018-09-04T08:38:36.251Z,32.29
2018-09-04T08:39:36.221Z,32.39
2018-09-04T08:40:36.193Z,33.26
2018-09-04T08:41:36.153Z,34.22
2018-09-04T08:42:36.124Z,34.13
2018-09-04T08:43:36.095Z,32.97
2018-09-04T08:44:36.066Z,33.26
2018-09-04T08:45:36.037Z,34.01
2018-09-04T08:46:36.006Z,33.34
2018-09-04T08:47:35.975Z,32.78
2018-09-04T08:48:35.941Z,31.43
2018-09-04T08:49:35.908Z,34.03
2018-09-04T08:50:35.918Z,30.76
2018-09-04T08:51:35.848Z,34.70
2018-09-04T08:52:35.822Z,35.67
2018-09-04T08:53:35.837Z,33.94
2018-09-04T08:54:35.755Z,33.57
2018-09-04T08:55:35.735Z,34.82
2018-09-04T08:56:35.695Z,34.63
2018-09-04T08:57:35.671Z,35.59
2018-09-04T08:58:35.683Z,35.88
2018-09-04T08:59:35.611Z,37.04
2018-09-04T09:00:35.567Z,38.01
2018-09-04T09:01:35.544Z,36.55
2018-09-04T09:02:35.507Z,38.68
2018-09-04T09:03:35.509Z,38.01
2018-09-04T09:04:35.449Z,39.47
2018-09-04T09:05:35.450Z,37.93
2018-09-04T09:06:35.386Z,41.02
2018-09-04T09:07:35.353Z,42.35
2018-09-04T09:08:35.353Z,36.29
2018-09-04T09:09:35.289Z,40.70
2018-09-04T09:10:35.262Z,40.03
2018-09-04T09:11:35.242Z,39.45
2018-09-04T09:12:35.212Z,39.37
2018-09-04T09:13:35.170Z,40.51
2018-09-04T09:14:35.137Z,41.11
2018-09-04T09:15:35.108Z,41.50
2018-09-04T09:16:35.101Z,42.36
2018-09-04T09:17:35.049Z,42.08
2018-09-04T09:18:35.019Z,41.40
2018-09-04T09:19:34.983Z,40.92
2018-09-04T09:20:34.951Z,42.27
2018-09-04T09:21:34.920Z,40.05
2018-09-04T09:22:34.893Z,41.30
2018-09-04T09:23:34.869Z,40.82
2018-09-04T09:24:34.844Z,40.55
2018-09-04T09:25:34.809Z,41.30
2018-09-04T09:26:34.772Z,44.51
2018-09-04T09:27:34.741Z,45.48
2018-09-04T09:28:34.715Z,45.48
2018-09-04T09:29:34.694Z,44.90
2018-09-04T09:30:34.650Z,43.93
2018-09-04T09:31:34.644Z,44.03
2018-09-04T09:32:34.596Z,42.48
2018-09-04T09:33:34.557Z,41.88
2018-09-04T09:34:34.530Z,42.94
2018-09-04T09:35:34.505Z,42.75
2018-09-04T09:36:34.557Z,42.18
2018-09-04T09:37:34.446Z,42.29
2018-09-04T09:38:34.408Z,41.02
2018-09-04T09:39:34.377Z,42.66
2018-09-04T09:40:34.345Z,42.77
2018-09-04T09:41:34.319Z,43.26
2018-09-04T09:42:34.284Z,42.39
2018-09-04T09:43:34.256Z,42.97
2018-09-04T09:44:34.238Z,43.16
2018-09-04T09:45:34.193Z,43.64
2018-09-04T09:46:34.171Z,43.37
2018-09-04T09:47:34.137Z,44.05
2018-09-04T09:48:34.109Z,47.24
2018-09-04T09:49:34.077Z,49.37
2018-09-04T09:50:34.067Z,48.01
2018-09-04T09:51:34.012Z,47.43
2018-09-04T09:52:34.064Z,48.39
2018-09-04T09:53:34.190Z,48.30
2018-09-04T09:54:33.923Z,47.81
2018-09-04T09:55:33.900Z,48.30
2018-09-04T09:56:33.870Z,47.74
2018-09-04T09:57:33.840Z,47.45
2018-09-04T09:58:33.805Z,48.23
2018-09-04T09:59:33.854Z,50.45
2018-09-04T10:00:33.741Z,50.35
2018-09-04T10:01:33.738Z,49.68
2018-09-04T10:02:33.684Z,50.43
2018-09-04T10:03:33.651Z,51.10
2018-09-04T10:04:33.635Z,49.85
2018-09-04T10:05:33.591Z,47.74
2018-09-04T10:06:33.567Z,50.07
2018-09-04T10:21:09.232Z,47.72
2018-09-04T10:22:09.162Z,48.11
2018-09-04T10:23:09.122Z,47.33
2018-09-04T10:24:09.094Z,46.73
2018-09-04T10:25:09.061Z,46.56
2018-09-04T10:26:09.025Z,46.06
2018-09-04T10:27:08.988Z,46.06
2018-09-04T10:28:08.955Z,46.54
2018-09-04T10:29:08.924Z,45.76
2018-09-04T10:30:08.889Z,44.90
2018-09-04T10:31:08.862Z,44.80
2018-09-04T10:32:08.828Z,44.03
2018-09-04T10:33:08.796Z,44.42
2018-09-04T10:34:08.767Z,44.90
2018-09-04T10:35:08.733Z,43.84
2018-09-04T10:36:08.713Z,44.60
2018-09-04T10:37:08.673Z,43.93
2018-09-04T10:38:08.636Z,44.24
2018-09-04T10:39:08.621Z,42.68
2018-09-04T10:40:08.582Z,43.35
2018-09-04T10:41:08.549Z,44.15
2018-09-04T10:42:08.544Z,44.22
2018-09-04T10:43:08.489Z,44.22
2018-09-04T10:44:08.519Z,44.12
2018-09-04T10:45:08.428Z,44.12
2018-09-04T10:46:08.396Z,43.26
2018-09-04T10:47:08.362Z,44.32
2018-09-04T10:48:08.333Z,43.93
2018-09-04T10:49:08.305Z,44.03
2018-09-04T10:50:08.269Z,44.03
2018-09-04T10:51:08.248Z,43.16
2018-09-04T10:52:08.220Z,44.42
2018-09-04T10:53:08.183Z,44.32
2018-09-04T10:54:08.154Z,44.12
2018-09-04T10:55:08.116Z,44.32
2018-09-04T10:56:08.093Z,44.32
2018-09-04T10:57:08.058Z,44.42
2018-09-04T10:58:08.035Z,44.60
2018-09-04T10:59:07.994Z,44.80
2018-09-04T11:00:07.967Z,45.28
2018-09-04T11:01:07.950Z,44.32
2018-09-04T11:02:07.904Z,45.57
2018-09-04T11:03:07.882Z,46.64
2018-09-04T11:04:07.849Z,46.15
2018-09-04T11:05:07.818Z,45.38
2018-09-04T11:06:07.787Z,45.86
2018-09-04T11:07:07.760Z,45.18
2018-09-04T11:08:07.725Z,47.60
2018-09-04T11:09:07.728Z,46.15
2018-09-04T11:10:07.665Z,47.41
2018-09-04T11:11:07.638Z,46.54
2018-09-04T11:12:07.602Z,46.54
2018-09-04T11:13:07.576Z,47.63
2018-09-04T11:14:07.537Z,47.14
2018-09-04T11:15:07.518Z,48.39
2018-09-04T11:16:07.487Z,48.57
2018-09-04T11:17:07.451Z,48.49
2018-09-04T11:18:07.422Z,48.39
2018-09-04T11:19:07.391Z,48.69
2018-09-04T11:20:07.357Z,48.88
2018-09-04T11:21:07.326Z,48.88
2018-09-04T11:22:07.295Z,49.17
2018-09-04T11:23:07.276Z,48.21
2018-09-04T11:24:07.239Z,48.97
2018-09-04T11:25:07.210Z,48.30
2018-09-04T11:26:07.182Z,49.55
2018-09-04T11:27:07.143Z,49.17
2018-09-04T11:28:07.115Z,49.27
2018-09-04T11:29:07.088Z,49.07
2018-09-04T11:30:07.058Z,48.49
2018-09-04T11:31:07.022Z,49.46
2018-09-04T11:32:07.008Z,50.04
2018-09-04T11:33:06.967Z,50.43
2018-09-04T11:34:06.933Z,51.29
2018-09-04T11:35:06.912Z,51.10
2018-09-04T11:36:06.877Z,50.43
2018-09-04T11:37:06.849Z,50.91
2018-09-04T11:38:06.816Z,50.62
2018-09-04T11:39:06.782Z,51.39
2018-09-04T11:40:06.758Z,51.59
2018-09-04T11:41:06.728Z,50.91
2018-09-04T11:42:06.689Z,50.52
2018-09-04T11:43:06.670Z,50.91
2018-09-04T11:44:06.636Z,50.33
2018-09-04T11:45:06.607Z,51.23
2018-09-04T11:46:06.573Z,52.19
2018-09-04T11:47:06.547Z,52.97
2018-09-04T11:48:06.514Z,53.93
2018-09-04T11:49:06.486Z,53.93
2018-09-04T11:50:06.455Z,53.35
2018-09-04T11:51:06.421Z,54.99
2018-09-04T11:52:06.392Z,54.15
2018-09-04T11:53:06.363Z,54.83
2018-09-04T11:54:06.329Z,53.45
2018-09-04T11:55:06.311Z,53.09
2018-09-04T11:56:06.276Z,53.77
2018-09-04T11:57:06.251Z,54.05
2018-09-04T11:58:06.216Z,54.25
2018-09-04T11:59:06.181Z,53.19
2018-09-04T12:00:06.155Z,54.22
2018-09-04T12:01:06.124Z,54.22
2018-09-04T12:02:06.098Z,54.99
2018-09-04T12:03:06.069Z,54.13
2018-09-04T12:04:06.035Z,54.32
2018-09-04T12:05:06.006Z,53.83
2018-09-04T12:06:05.974Z,53.93
2018-09-04T12:07:05.948Z,53.83
2018-09-04T12:08:05.915Z,53.45
2018-09-04T12:09:05.889Z,53.55
2018-09-04T12:10:05.859Z,54.10
2018-09-04T12:11:05.828Z,53.61
2018-09-04T12:12:05.791Z,53.74
2018-09-04T12:13:05.788Z,54.22
2018-09-04T12:14:05.733Z,54.61
2018-09-04T12:15:05.706Z,54.71
2018-09-04T12:16:05.680Z,48.03
2018-09-04T12:17:05.643Z,46.00
2018-09-04T12:18:05.615Z,45.33
2018-09-04T12:19:05.598Z,44.46
2018-09-04T12:20:05.560Z,45.52
2018-09-04T12:21:05.661Z,44.43
2018-09-04T12:22:05.503Z,44.36
2018-09-04T12:23:05.466Z,44.46
2018-09-04T12:24:05.437Z,44.63
2018-09-04T12:25:05.403Z,44.84
2018-09-04T12:26:05.374Z,45.21
2018-09-04T12:27:05.375Z,44.53
2018-09-04T12:28:05.318Z,46.47
2018-09-04T12:29:05.295Z,45.62
2018-09-04T12:30:05.256Z,46.39
2018-09-04T12:31:05.230Z,47.55
2018-09-04T12:32:05.204Z,48.42
2018-09-04T12:33:05.172Z,49.10
2018-09-04T12:34:05.209Z,49.58
2018-09-04T12:35:05.108Z,50.09
2018-09-04T12:36:05.073Z,49.80
2018-09-04T12:37:05.043Z,52.22
2018-09-04T12:38:05.017Z,52.31
2018-09-04T12:39:04.987Z,52.51
2018-09-04T12:40:04.963Z,51.54
2018-09-04T12:41:04.931Z,51.15
2018-09-04T12:42:04.898Z,51.25
2018-09-04T12:43:04.868Z,50.38
2018-09-04T12:44:04.834Z,50.28
2018-09-04T12:45:04.807Z,50.28
2018-09-04T12:46:04.778Z,51.54
2018-09-04T12:47:04.750Z,51.54
2018-09-04T12:48:04.802Z,51.54
2018-09-04T12:49:04.688Z,50.76
2018-09-04T12:50:04.710Z,52.70
2018-09-04T12:51:04.628Z,52.22
2018-09-04T12:52:04.642Z,52.41
2018-09-04T12:53:04.573Z,52.80
2018-09-04T12:54:04.538Z,52.31
2018-09-04T12:55:04.509Z,52.99
2018-09-04T12:56:04.476Z,53.38
2018-09-04T12:57:04.452Z,53.09
2018-09-04T12:58:04.423Z,52.89
2018-09-04T12:59:04.392Z,52.80
2018-09-04T13:00:04.375Z,51.73
2018-09-04T13:01:04.334Z,52.02
2018-09-04T13:02:04.302Z,50.96
2018-09-04T13:03:04.272Z,51.44
2018-09-04T13:04:04.255Z,50.86
2018-09-04T13:05:04.223Z,50.35
2018-09-04T13:06:04.186Z,50.26
2018-09-04T13:07:04.152Z,50.09
2018-09-04T13:08:04.121Z,50.76
2018-09-04T13:09:04.189Z,50.86
2018-09-04T13:10:04.066Z,51.64
2018-09-04T13:11:04.035Z,51.35
2018-09-04T13:12:04.015Z,50.93
2018-09-04T13:13:03.979Z,51.51
2018-09-04T13:14:03.953Z,51.03
2018-09-04T13:15:03.916Z,51.73
2018-09-04T13:16:03.884Z,51.35
2018-09-04T13:17:03.860Z,51.15
2018-09-04T13:18:03.823Z,50.28
2018-09-04T13:19:03.796Z,50.67
2018-09-04T13:20:03.770Z,51.06
2018-09-04T13:21:03.736Z,50.79
2018-09-04T13:22:03.720Z,51.95
2018-09-04T13:23:03.680Z,54.27
2018-09-04T13:24:03.651Z,54.88
2018-09-04T13:25:03.621Z,54.21
2018-09-04T13:26:03.588Z,54.79
2018-09-04T13:27:03.558Z,55.94
2018-09-04T13:28:03.525Z,56.82
2018-09-04T13:29:03.495Z,55.76
2018-09-04T13:30:03.470Z,55.82
2018-09-04T13:31:03.445Z,53.99
2018-09-04T13:32:03.413Z,54.37
2018-09-04T13:33:03.383Z,53.99
2018-09-04T13:34:03.352Z,54.95